Time,TemperatureF,DewpointF,PressureIn,WindDirection,WindDirectionDegrees,WindSpeedMPH,WindSpeedGustMPH,Humidity,HourlyPrecipIn,Conditions,Clouds,dailyrainin,SoftwareType,DateUTC
2013-04-01 00:03:00,53.2,41.7,29.94,NW,316,1.0,2.3,65,0.00,RA,,0.00,WeatherDisplay:10.37,2013-04-01 05:03:00,
2013-04-01 00:08:00,52.9,41.8,29.94,WNW,303,1.5,2.3,66,0.00,RA,,0.00,WeatherDisplay:10.37,2013-04-01 05:08:00,
2013-04-01 00:13:00,52.7,41.7,29.94,NW,305,0.1,1.1,66,0.00,,,0.00,WeatherDisplay:10.37,2013-04-01 05:13:00,
2013-04-01 00:18:00,52.7,41.7,29.94,WNW,283,1.2,1.2,66,0.00,,,0.00,WeatherDisplay:10.37,2013-04-01 05:18:00,
2013-04-01 00:23:00,52.7,41.7,29.93,WNW,290,0.0,0.0,66,0.00,,,0.00,WeatherDisplay:10.37,2013-04-01 05:23:00,
2013-04-01 00:28:00,52.5,41.9,29.93,WNW,290,0.0,0.0,67,0.00,,,0.00,WeatherDisplay:10.37,2013-04-01 05:28:00,
2013-04-01 00:33:00,52.3,41.7,29.93,WNW,290,0.0,0.0,67,0.00,,,0.00,WeatherDisplay:10.37,2013-04-01 05:33:00,
2013-04-01 00:38:00,51.8,41.6,29.93,WNW,290,0.0,1.1,68,0.00,,,0.00,WeatherDisplay:10.37,2013-04-01 05:38:00,
2013-04-01 00:43:00,51.3,41.5,29.94,WNW,290,0.1,1.0,69,0.00,,,0.00,WeatherDisplay:10.37,2013-04-01 05:43:00,
2013-04-01 00:49:00,51.2,41.4,29.94,WNW,290,0.0,1.1,69,0.00,,,0.00,WeatherDisplay:10.37,2013-04-01 05:49:00,
2013-04-01 00:54:00,50.7,41.3,29.94,WNW,288,0.0,0.0,70,0.00,,,0.00,WeatherDisplay:10.37,2013-04-01 05:54:00,
2013-04-01 00:59:00,50.2,41.2,29.94,WNW,288,0.0,0.0,71,0.00,,,0.00,WeatherDisplay:10.37,2013-04-01 05:59:00,
2013-04-01 01:04:00,49.8,41.1,29.94,WNW,288,0.0,0.0,72,0.00,,,0.00,WeatherDisplay:10.37,2013-04-01 06:04:00,
2013-04-01 01:09:00,49.8,41.1,29.94,WNW,288,0.0,0.0,72,0.00,,,0.00,WeatherDisplay:10.37,2013-04-01 06:09:00,
2013-04-01 01:14:00,49.7,41.0,29.94,WNW,288,0.0,0.0,72,0.00,,,0.00,WeatherDisplay:10.37,2013-04-01 06:14:00,
2013-04-01 01:19:00,49.4,41.5,29.94,WNW,288,0.0,0.0,74,0.00,,,0.00,WeatherDisplay:10.37,2013-04-01 06:19:00,
2013-04-01 01:24:00,49.1,41.2,29.94,WNW,288,0.0,0.0,74,0.00,,,0.00,WeatherDisplay:10.37,2013-04-01 06:24:00,
2013-04-01 01:29:00,49.1,41.2,29.94,WNW,288,0.0,0.0,74,0.00,,,0.00,WeatherDisplay:10.37,2013-04-01 06:29:00,
2013-04-01 01:34:00,49.0,41.4,29.93,WNW,288,0.0,1.1,75,0.00,,,0.00,WeatherDisplay:10.37,2013-04-01 06:34:00,
2013-04-01 01:39:00,48.9,41.3,29.93,WSW,246,0.9,1.1,75,0.00,,,0.00,WeatherDisplay:10.37,2013-04-01 06:39:00,
2013-04-01 01:44:00,49.1,41.5,29.93,WSW,240,0.0,0.0,75,0.00,,,0.00,WeatherDisplay:10.37,2013-04-01 06:44:00,
2013-04-01 01:49:00,48.6,41.4,29.93,WSW,240,0.0,0.0,76,0.00,,,0.00,WeatherDisplay:10.37,2013-04-01 06:49:00,
2013-04-01 01:54:00,48.6,41.4,29.94,WSW,241,0.0,0.0,76,0.00,,,0.00,WeatherDisplay:10.37,2013-04-01 06:54:00,
2013-04-01 01:59:00,48.9,41.3,29.94,West,260,0.0,1.1,75,0.00,,,0.00,WeatherDisplay:10.37,2013-04-01 06:59:00,
2013-04-01 02:04:00,48.5,41.3,29.94,West,260,0.0,0.0,76,0.00,,,0.00,WeatherDisplay:10.37,2013-04-01 07:04:00,
2013-04-01 02:09:00,48.2,41.0,29.94,West,260,0.0,0.0,76,0.00,,,0.00,WeatherDisplay:10.37,2013-04-01 07:09:00,
2013-04-01 02:14:00,48.4,41.2,29.94,West,259,0.0,0.0,76,0.00,,,0.00,WeatherDisplay:10.37,2013-04-01 07:14:00,
2013-04-01 02:19:00,48.5,41.3,29.95,West,259,0.0,0.0,76,0.00,,,0.00,WeatherDisplay:10.37,2013-04-01 07:19:00,
2013-04-01 02:24:00,48.4,41.2,29.95,West,260,0.0,0.0,76,0.00,,,0.00,WeatherDisplay:10.37,2013-04-01 07:24:00,
2013-04-01 02:29:00,48.4,41.2,29.95,West,260,0.0,0.0,76,0.00,,,0.00,WeatherDisplay:10.37,2013-04-01 07:29:00,
2013-04-01 02:34:00,48.2,41.0,29.95,West,260,0.0,0.0,76,0.00,,,0.00,WeatherDisplay:10.37,2013-04-01 07:34:00,
2013-04-01 02:39:00,48.3,41.1,29.95,West,260,0.0,1.1,76,0.00,,,0.00,WeatherDisplay:10.37,2013-04-01 07:39:00,
2013-04-01 02:44:00,48.6,41.0,29.95,West,260,0.0,1.1,75,0.00,,,0.00,WeatherDisplay:10.37,2013-04-01 07:44:00,
2013-04-01 02:49:00,48.6,41.0,29.96,WNW,292,0.6,1.1,75,0.00,,,0.00,WeatherDisplay:10.37,2013-04-01 07:49:00,
2013-04-01 02:54:00,48.4,40.8,29.96,WNW,293,0.0,0.0,75,0.00,,,0.00,WeatherDisplay:10.37,2013-04-01 07:54:00,
2013-04-01 02:59:00,48.1,40.9,29.96,WNW,293,0.1,1.0,76,0.00,,,0.00,WeatherDisplay:10.37,2013-04-01 07:59:00,
2013-04-01 03:04:00,47.9,40.7,29.96,WNW,293,0.0,0.0,76,0.00,,,0.00,WeatherDisplay:10.37,2013-04-01 08:04:00,
2013-04-01 03:09:00,47.8,40.9,29.96,WNW,292,0.0,0.0,77,0.00,,,0.00,WeatherDisplay:10.37,2013-04-01 08:09:00,
2013-04-01 03:14:00,47.8,40.9,29.96,WNW,293,0.0,0.0,77,0.00,,,0.00,WeatherDisplay:10.37,2013-04-01 08:14:00,
2013-04-01 03:19:00,47.8,40.9,29.96,WNW,293,0.0,0.0,77,0.00,,,0.00,WeatherDisplay:10.37,2013-04-01 08:19:00,
2013-04-01 03:24:00,47.8,40.6,29.96,WNW,293,0.0,0.0,76,0.00,,,0.00,WeatherDisplay:10.37,2013-04-01 08:24:00,
2013-04-01 03:29:00,47.8,40.6,29.96,WNW,293,0.0,0.0,76,0.00,,,0.00,WeatherDisplay:10.37,2013-04-01 08:29:00,
2013-04-01 03:34:00,48.1,40.9,29.97,WNW,292,0.0,0.0,76,0.00,,,0.00,WeatherDisplay:10.37,2013-04-01 08:34:00,
2013-04-01 03:39:00,48.3,40.7,29.97,WNW,293,0.9,1.1,75,0.00,,,0.00,WeatherDisplay:10.37,2013-04-01 08:39:00,
2013-04-01 03:44:00,48.1,40.5,29.97,WNW,293,0.7,1.1,75,0.00,,,0.00,WeatherDisplay:10.37,2013-04-01 08:44:00,
2013-04-01 03:49:00,47.8,40.3,29.97,WNW,292,0.0,0.0,75,0.00,,,0.00,WeatherDisplay:10.37,2013-04-01 08:49:00,
2013-04-01 03:54:00,47.3,40.5,29.97,WNW,294,0.2,1.0,77,0.00,,,0.00,WeatherDisplay:10.37,2013-04-01 08:54:00,
2013-04-01 03:59:00,47.2,40.4,29.98,WNW,294,0.1,1.1,77,0.00,,,0.00,WeatherDisplay:10.37,2013-04-01 08:59:00,
2013-04-01 04:04:00,46.9,40.1,29.98,WNW,294,0.0,0.0,77,0.00,,,0.00,WeatherDisplay:10.37,2013-04-01 09:04:00,
2013-04-01 04:09:00,46.6,40.1,29.98,WNW,294,0.0,1.1,78,0.00,,,0.00,WeatherDisplay:10.37,2013-04-01 09:09:00,
2013-04-01 04:15:00,46.4,40.2,29.98,WNW,294,0.0,1.1,79,0.00,,,0.00,WeatherDisplay:10.37,2013-04-01 09:15:00,
2013-04-01 04:20:00,46.4,40.2,29.97,WNW,294,0.0,0.0,79,0.00,,,0.00,WeatherDisplay:10.37,2013-04-01 09:20:00,
2013-04-01 04:25:00,46.3,40.1,29.98,WNW,294,0.1,0.0,79,0.00,,,0.00,WeatherDisplay:10.37,2013-04-01 09:25:00,
2013-04-01 04:30:00,46.4,40.2,29.98,WNW,294,0.1,1.1,79,0.00,,,0.00,WeatherDisplay:10.37,2013-04-01 09:30:00,
2013-04-01 04:35:00,46.5,40.3,29.98,WNW,294,0.4,1.1,79,0.00,,,0.00,WeatherDisplay:10.37,2013-04-01 09:35:00,
2013-04-01 04:40:00,46.7,40.5,29.98,NE,34,0.7,2.3,79,0.00,,,0.00,WeatherDisplay:10.37,2013-04-01 09:40:00,
2013-04-01 04:45:00,46.9,40.7,29.98,NNW,340,0.6,1.1,79,0.00,,,0.00,WeatherDisplay:10.37,2013-04-01 09:45:00,
2013-04-01 04:50:00,47.1,40.9,29.98,NNW,341,1.0,2.3,79,0.00,,,0.00,WeatherDisplay:10.37,2013-04-01 09:50:00,
2013-04-01 04:55:00,47.1,40.6,29.99,NNW,333,0.9,1.1,78,0.00,,,0.00,WeatherDisplay:10.37,2013-04-01 09:55:00,
2013-04-01 05:00:00,47.1,40.6,29.99,NNW,330,0.0,1.1,78,0.00,,,0.00,WeatherDisplay:10.37,2013-04-01 10:00:00,
2013-04-01 05:05:00,46.9,40.4,29.99,NNW,330,0.0,0.0,78,0.00,,,0.00,WeatherDisplay:10.37,2013-04-01 10:05:00,
2013-04-01 05:10:00,46.7,40.5,30.00,NNE,18,0.7,2.3,79,0.00,,,0.00,WeatherDisplay:10.37,2013-04-01 10:10:00,
2013-04-01 05:15:00,46.7,40.5,30.00,NE,43,1.5,3.5,79,0.00,,,0.00,WeatherDisplay:10.37,2013-04-01 10:15:00,
2013-04-01 05:20:00,47.2,40.7,30.00,NNE,14,1.3,2.3,78,0.00,,,0.00,WeatherDisplay:10.37,2013-04-01 10:20:00,
2013-04-01 05:25:00,47.3,40.8,30.00,ENE,67,2.3,3.5,78,0.00,,,0.00,WeatherDisplay:10.37,2013-04-01 10:25:00,
2013-04-01 05:30:00,47.4,40.6,30.00,NE,39,0.5,1.1,77,0.00,,,0.00,WeatherDisplay:10.37,2013-04-01 10:30:00,
2013-04-01 05:35:00,47.3,40.8,30.00,NE,43,3.0,4.6,78,0.00,,,0.00,WeatherDisplay:10.37,2013-04-01 10:35:00,
2013-04-01 05:40:00,47.1,40.6,30.00,ENE,64,1.3,2.3,78,0.00,,,0.00,WeatherDisplay:10.37,2013-04-01 10:40:00,
2013-04-01 05:45:00,46.6,40.4,30.00,NE,45,0.0,0.0,79,0.00,,,0.00,WeatherDisplay:10.37,2013-04-01 10:45:00,
2013-04-01 05:50:00,46.1,40.3,30.01,NNE,18,0.2,1.1,80,0.00,,,0.00,WeatherDisplay:10.37,2013-04-01 10:50:00,
2013-04-01 05:55:00,45.7,39.9,30.02,NNE,19,0.6,1.1,80,0.00,,,0.00,WeatherDisplay:10.37,2013-04-01 10:55:00,
2013-04-01 06:00:00,45.3,39.8,30.02,NNW,338,0.2,1.1,81,0.00,,,0.00,WeatherDisplay:10.37,2013-04-01 11:00:00,
2013-04-01 06:05:00,45.3,40.1,30.02,NE,39,0.4,2.3,82,0.00,,,0.00,WeatherDisplay:10.37,2013-04-01 11:05:00,
2013-04-01 06:10:00,45.3,39.8,30.02,NNE,25,1.6,3.5,81,0.00,CLR,,0.00,WeatherDisplay:10.37,2013-04-01 11:10:00,
2013-04-01 06:15:00,45.0,39.8,30.03,North,6,1.7,2.3,82,0.00,CLR,,0.00,WeatherDisplay:10.37,2013-04-01 11:15:00,
2013-04-01 06:20:00,44.8,39.6,30.03,NE,41,1.9,3.5,82,0.00,CLR,,0.00,WeatherDisplay:10.37,2013-04-01 11:20:00,
2013-04-01 06:25:00,44.6,39.4,30.03,North,1,0.6,1.1,82,0.00,CLR,,0.00,WeatherDisplay:10.37,2013-04-01 11:25:00,
2013-04-01 06:30:00,44.6,39.4,30.03,NE,36,1.9,3.5,82,0.00,CLR,,0.00,WeatherDisplay:10.37,2013-04-01 11:30:00,
2013-04-01 06:35:00,44.8,39.0,30.04,NE,37,3.1,3.5,80,0.00,CLR,,0.00,WeatherDisplay:10.37,2013-04-01 11:35:00,
2013-04-01 06:40:00,44.8,38.7,30.04,NNE,30,3.0,6.9,79,0.00,CLR,,0.00,WeatherDisplay:10.37,2013-04-01 11:40:00,
2013-04-01 06:45:00,44.8,38.7,30.04,NNE,27,3.3,6.9,79,0.00,CLR,,0.00,WeatherDisplay:10.37,2013-04-01 11:45:00,
2013-04-01 06:50:00,44.7,38.3,30.04,NNE,23,4.2,4.6,78,0.00,CLR,,0.00,WeatherDisplay:10.37,2013-04-01 11:50:00,
2013-04-01 06:55:00,44.3,37.9,30.05,NE,52,3.4,4.6,78,0.00,CLR,,0.00,WeatherDisplay:10.37,2013-04-01 11:55:00,
2013-04-01 07:00:00,43.9,36.8,30.05,ENE,61,4.4,6.9,76,0.00,CLR,,0.00,WeatherDisplay:10.37,2013-04-01 12:00:00,
2013-04-01 07:05:00,43.7,36.3,30.05,NE,39,3.9,5.8,75,0.00,CLR,,0.00,WeatherDisplay:10.37,2013-04-01 12:05:00,
2013-04-01 07:10:00,43.4,36.3,30.06,NNW,345,1.9,4.6,76,0.00,CLR,,0.00,WeatherDisplay:10.37,2013-04-01 12:10:00,
2013-04-01 07:15:00,43.2,36.1,30.06,NE,41,1.5,3.0,76,0.00,CLR,,0.00,WeatherDisplay:10.37,2013-04-01 12:15:00,
2013-04-01 07:20:00,43.2,36.1,30.07,NE,44,2.9,3.5,76,0.00,CLR,,0.00,WeatherDisplay:10.37,2013-04-01 12:20:00,
2013-04-01 07:25:00,43.2,35.8,30.07,NNE,23,3.0,5.8,75,0.00,CLR,,0.00,WeatherDisplay:10.37,2013-04-01 12:25:00,
2013-04-01 07:30:00,43.1,35.7,30.07,NNE,25,2.1,6.0,75,0.00,CLR,,0.00,WeatherDisplay:10.37,2013-04-01 12:30:00,
2013-04-01 07:35:00,43.2,35.5,30.08,NE,51,2.0,4.6,74,0.00,CLR,,0.00,WeatherDisplay:10.37,2013-04-01 12:35:00,
2013-04-01 07:40:00,43.3,35.6,30.08,NNE,18,3.0,5.8,74,0.00,CLR,,0.00,WeatherDisplay:10.37,2013-04-01 12:40:00,
2013-04-01 07:45:00,43.4,35.0,30.09,NNE,30,4.2,5.0,72,0.00,CLR,,0.00,WeatherDisplay:10.37,2013-04-01 12:45:00,
2013-04-01 07:50:00,43.4,35.0,30.09,NNE,18,4.4,6.9,72,0.00,CLR,,0.00,WeatherDisplay:10.37,2013-04-01 12:50:00,
2013-04-01 07:55:00,43.4,35.0,30.10,NNE,33,2.3,3.5,72,0.00,CLR,,0.00,WeatherDisplay:10.37,2013-04-01 12:55:00,
2013-04-01 08:00:00,43.5,34.4,30.09,NNE,18,8.0,11.5,70,0.00,CLR,,0.00,WeatherDisplay:10.37,2013-04-01 13:00:00,
2013-04-01 08:05:00,43.5,34.7,30.09,NNW,335,4.8,6.9,71,0.00,CLR,,0.00,WeatherDisplay:10.37,2013-04-01 13:05:00,
2013-04-01 08:10:00,43.7,34.6,30.09,NE,46,3.9,10.4,70,0.00,CLR,,0.00,WeatherDisplay:10.37,2013-04-01 13:10:00,
2013-04-01 08:15:00,43.9,35.1,30.09,NE,49,2.1,8.1,71,0.00,CLR,,0.00,WeatherDisplay:10.37,2013-04-01 13:15:00,
2013-04-01 08:20:00,44.2,35.0,30.10,NNE,29,1.9,3.5,70,0.00,CLR,,0.00,WeatherDisplay:10.37,2013-04-01 13:20:00,
2013-04-01 08:26:00,44.3,34.8,30.10,North,5,4.7,9.2,69,0.00,CLR,,0.00,WeatherDisplay:10.37,2013-04-01 13:26:00,
2013-04-01 08:31:00,44.5,35.0,30.10,NE,56,4.3,6.9,69,0.00,CLR,,0.00,WeatherDisplay:10.37,2013-04-01 13:31:00,
2013-04-01 08:36:00,44.6,34.7,30.11,ENE,60,5.3,11.5,68,0.00,CLR,,0.00,WeatherDisplay:10.37,2013-04-01 13:36:00,
2013-04-01 08:41:00,45.1,35.5,30.11,NNE,30,2.0,2.3,69,0.00,CLR,,0.00,WeatherDisplay:10.37,2013-04-01 13:41:00,
2013-04-01 08:46:00,45.4,35.5,30.10,NE,39,1.1,3.5,68,0.00,CLR,,0.00,WeatherDisplay:10.37,2013-04-01 13:46:00,
2013-04-01 08:51:00,45.5,35.2,30.11,NE,54,6.9,11.5,67,0.00,CLR,,0.00,WeatherDisplay:10.37,2013-04-01 13:51:00,
2013-04-01 08:56:00,45.6,35.3,30.11,NE,53,4.3,6.9,67,0.00,CLR,,0.00,WeatherDisplay:10.37,2013-04-01 13:56:00,
2013-04-01 09:01:00,45.8,35.5,30.11,NNW,328,4.5,6.9,67,0.00,CLR,,0.00,WeatherDisplay:10.37,2013-04-01 14:01:00,
2013-04-01 09:06:00,46.4,36.4,30.11,NE,56,0.5,1.1,68,0.00,CLR,,0.00,WeatherDisplay:10.37,2013-04-01 14:06:00,
2013-04-01 09:11:00,46.8,36.0,30.11,NNW,332,3.4,9.2,66,0.00,CLR,,0.00,WeatherDisplay:10.37,2013-04-01 14:11:00,
2013-04-01 09:16:00,46.9,35.7,30.11,NNW,334,6.6,10.4,65,0.00,CLR,,0.00,WeatherDisplay:10.37,2013-04-01 14:16:00,
2013-04-01 09:21:00,47.2,36.4,30.11,NNE,15,3.7,6.0,66,0.00,CLR,,0.00,WeatherDisplay:10.37,2013-04-01 14:21:00,
2013-04-01 09:26:00,47.3,35.7,30.11,ENE,58,4.1,9.2,64,0.00,CLR,,0.00,WeatherDisplay:10.37,2013-04-01 14:26:00,
2013-04-01 09:32:00,47.1,35.5,30.11,NNE,12,4.5,11.5,64,0.00,CLR,,0.00,WeatherDisplay:10.37,2013-04-01 14:32:00,
2013-04-01 09:37:00,47.3,35.7,30.11,West,280,7.0,12.7,64,0.00,CLR,,0.00,WeatherDisplay:10.37,2013-04-01 14:37:00,
2013-04-01 09:42:00,47.7,36.1,30.11,NW,312,8.4,11.5,64,0.00,CLR,,0.00,WeatherDisplay:10.37,2013-04-01 14:42:00,
2013-04-01 09:47:00,47.9,36.3,30.12,NNW,333,4.5,11.0,64,0.00,CLR,,0.00,WeatherDisplay:10.37,2013-04-01 14:47:00,
2013-04-01 09:52:00,48.2,36.6,30.12,ENE,63,1.4,3.5,64,0.00,CLR,,0.00,WeatherDisplay:10.37,2013-04-01 14:52:00,
2013-04-01 09:57:00,48.3,35.9,30.12,NNW,340,6.6,7.0,62,0.00,CLR,,0.00,WeatherDisplay:10.37,2013-04-01 14:57:00,
2013-04-01 10:02:00,48.3,35.9,30.12,NNW,339,5.5,8.1,62,0.00,CLR,,0.00,WeatherDisplay:10.37,2013-04-01 15:02:00,
2013-04-01 10:07:00,48.5,36.1,30.12,NNW,340,3.3,5.8,62,0.00,CLR,,0.00,WeatherDisplay:10.37,2013-04-01 15:07:00,
2013-04-01 10:12:00,49.0,36.1,30.12,NW,304,3.7,6.0,61,0.00,CLR,,0.00,WeatherDisplay:10.37,2013-04-01 15:12:00,
2013-04-01 10:17:00,49.0,36.1,30.12,North,354,5.0,10.4,61,0.00,CLR,,0.00,WeatherDisplay:10.37,2013-04-01 15:17:00,
2013-04-01 10:22:00,49.2,36.7,30.12,NW,311,4.5,9.2,62,0.00,CLR,,0.00,WeatherDisplay:10.37,2013-04-01 15:22:00,
2013-04-01 10:27:00,48.9,35.6,30.12,ENE,60,4.5,9.2,60,0.00,CLR,,0.00,WeatherDisplay:10.37,2013-04-01 15:27:00,
2013-04-01 10:32:00,49.4,38.1,30.12,NNW,341,2.3,4.6,65,0.00,CLR,,0.00,WeatherDisplay:10.37,2013-04-01 15:32:00,
2013-04-01 10:37:00,49.7,36.4,30.12,NNE,29,4.0,5.0,60,0.00,CLR,,0.00,WeatherDisplay:10.37,2013-04-01 15:37:00,
2013-04-01 10:43:00,50.3,38.2,30.12,WSW,240,0.6,3.5,63,0.00,CLR,,0.00,WeatherDisplay:10.37,2013-04-01 15:43:00,
2013-04-01 10:48:00,50.8,37.0,30.12,NNW,328,2.1,5.8,59,0.00,CLR,,0.00,WeatherDisplay:10.37,2013-04-01 15:48:00,
2013-04-01 10:53:00,50.7,36.5,30.12,NE,43,3.6,8.0,58,0.00,CLR,,0.00,WeatherDisplay:10.37,2013-04-01 15:53:00,
2013-04-01 10:58:00,50.7,36.9,30.12,NE,49,2.0,3.5,59,0.00,CLR,,0.00,WeatherDisplay:10.37,2013-04-01 15:58:00,
2013-04-01 11:03:00,50.8,37.0,30.12,NNE,23,6.2,9.2,59,0.00,CLR,,0.00,WeatherDisplay:10.37,2013-04-01 16:03:00,
2013-04-01 11:08:00,51.1,36.8,30.12,WNW,302,1.4,3.5,58,0.00,CLR,,0.00,WeatherDisplay:10.37,2013-04-01 16:08:00,
2013-04-01 11:13:00,51.1,36.8,30.13,NE,49,5.8,9.2,58,0.00,CLR,,0.00,WeatherDisplay:10.37,2013-04-01 16:13:00,
2013-04-01 11:18:00,50.8,36.1,30.13,East,85,2.7,3.5,57,0.00,CLR,,0.00,WeatherDisplay:10.37,2013-04-01 16:18:00,
2013-04-01 11:23:00,51.2,37.4,30.13,WNW,298,3.9,5.8,59,0.00,CLR,,0.00,WeatherDisplay:10.37,2013-04-01 16:23:00,
2013-04-01 11:28:00,51.7,37.4,30.13,WNW,302,3.6,6.9,58,0.00,CLR,,0.00,WeatherDisplay:10.37,2013-04-01 16:28:00,
2013-04-01 11:33:00,51.6,37.3,30.13,ENE,67,4.2,8.1,58,0.00,CLR,,0.00,WeatherDisplay:10.37,2013-04-01 16:33:00,
2013-04-01 11:38:00,51.6,37.3,30.13,NW,323,5.4,10.4,58,0.00,CLR,,0.00,WeatherDisplay:10.37,2013-04-01 16:38:00,
2013-04-01 11:43:00,52.4,38.0,30.14,NNW,342,2.6,5.8,58,0.00,CLR,,0.00,WeatherDisplay:10.37,2013-04-01 16:43:00,
2013-04-01 11:48:00,52.0,37.2,30.13,WNW,302,4.9,7.0,57,0.00,CLR,,0.00,WeatherDisplay:10.37,2013-04-01 16:48:00,
2013-04-01 11:53:00,52.1,38.6,30.13,NW,317,1.5,2.3,60,0.00,CLR,,0.00,WeatherDisplay:10.37,2013-04-01 16:53:00,
2013-04-01 11:58:00,52.4,37.6,30.13,North,358,5.3,8.0,57,0.00,CLR,,0.00,WeatherDisplay:10.37,2013-04-01 16:58:00,
2013-04-01 12:03:00,52.4,38.0,30.13,NNW,336,4.6,8.1,58,0.00,CLR,,0.00,WeatherDisplay:10.37,2013-04-01 17:03:00,
2013-04-01 12:08:00,52.7,38.3,30.14,NNW,334,5.7,5.8,58,0.00,CLR,,0.00,WeatherDisplay:10.37,2013-04-01 17:08:00,
2013-04-01 12:13:00,53.1,37.8,30.13,NW,318,5.0,6.0,56,0.00,CLR,,0.00,WeatherDisplay:10.37,2013-04-01 17:13:00,
2013-04-01 12:18:00,52.8,37.1,30.13,North,360,4.9,8.1,55,0.00,CLR,,0.00,WeatherDisplay:10.37,2013-04-01 17:18:00,
2013-04-01 12:23:00,52.8,37.1,30.13,North,357,4.0,4.6,55,0.00,CLR,,0.00,WeatherDisplay:10.37,2013-04-01 17:23:00,
2013-04-01 12:28:00,52.9,37.2,30.13,NNE,25,5.2,6.9,55,0.00,CLR,,0.00,WeatherDisplay:10.37,2013-04-01 17:28:00,
2013-04-01 12:33:00,53.4,38.1,30.13,NW,305,1.7,3.5,56,0.00,CLR,,0.00,WeatherDisplay:10.37,2013-04-01 17:33:00,
2013-04-01 12:38:00,53.9,38.1,30.13,WNW,290,1.8,3.5,55,0.00,CLR,,0.00,WeatherDisplay:10.37,2013-04-01 17:38:00,
2013-04-01 12:43:00,54.2,38.4,30.13,NNW,332,2.7,6.9,55,0.00,CLR,,0.00,WeatherDisplay:10.37,2013-04-01 17:43:00,
2013-04-01 12:48:00,55.1,39.7,30.13,NW,314,4.9,4.9,56,0.00,CLR,,0.00,WeatherDisplay:10.37,2013-04-01 17:48:00,
2013-04-01 12:53:00,54.5,38.2,30.13,West,274,5.2,6.9,54,0.00,CLR,,0.00,WeatherDisplay:10.37,2013-04-01 17:53:00,
2013-04-01 12:58:00,54.5,38.7,30.13,NE,47,4.8,6.0,55,0.00,CLR,,0.00,WeatherDisplay:10.37,2013-04-01 17:58:00,
2013-04-01 13:03:00,54.4,38.1,30.13,NNW,340,5.2,10.4,54,0.00,CLR,,0.00,WeatherDisplay:10.37,2013-04-01 18:03:00,
2013-04-01 13:08:00,53.8,38.0,30.12,NNE,32,4.9,10.0,55,0.00,CLR,,0.00,WeatherDisplay:10.37,2013-04-01 18:08:00,
2013-04-01 13:13:00,54.8,39.4,30.12,North,352,2.9,4.6,56,0.00,CLR,,0.00,WeatherDisplay:10.37,2013-04-01 18:13:00,
2013-04-01 13:19:00,55.0,38.2,30.12,WSW,248,0.4,2.3,53,0.00,CLR,,0.00,WeatherDisplay:10.37,2013-04-01 18:19:00,
2013-04-01 13:24:00,54.5,39.1,30.12,WNW,302,3.8,4.6,56,0.00,CLR,,0.00,WeatherDisplay:10.37,2013-04-01 18:24:00,
2013-04-01 13:29:00,54.7,39.8,30.13,West,277,3.2,3.5,57,0.00,CLR,,0.00,WeatherDisplay:10.37,2013-04-01 18:29:00,
2013-04-01 13:34:00,54.9,38.6,30.12,WSW,252,3.3,4.6,54,0.00,CLR,,0.00,WeatherDisplay:10.37,2013-04-01 18:34:00,
2013-04-01 13:39:00,55.8,39.9,30.12,NW,326,1.1,3.5,55,0.00,CLR,,0.00,WeatherDisplay:10.37,2013-04-01 18:39:00,
2013-04-01 13:44:00,55.5,38.6,30.11,East,84,3.4,5.8,53,0.00,CLR,,0.00,WeatherDisplay:10.37,2013-04-01 18:44:00,
2013-04-01 13:49:00,55.4,40.0,30.11,ENE,58,2.0,5.8,56,0.00,CLR,,0.00,WeatherDisplay:10.37,2013-04-01 18:49:00,
2013-04-01 13:54:00,55.3,39.4,30.11,NE,43,2.5,3.5,55,0.00,CLR,,0.00,WeatherDisplay:10.37,2013-04-01 18:54:00,
2013-04-01 13:59:00,55.4,38.1,30.11,ENE,67,3.9,5.0,52,0.00,CLR,,0.00,WeatherDisplay:10.37,2013-04-01 18:59:00,
2013-04-01 14:04:00,55.2,38.8,30.11,WNW,298,5.3,8.1,54,0.00,CLR,,0.00,WeatherDisplay:10.37,2013-04-01 19:04:00,
2013-04-01 14:09:00,55.3,38.4,30.12,WNW,290,4.9,6.9,53,0.00,CLR,,0.00,WeatherDisplay:10.37,2013-04-01 19:09:00,
2013-04-01 14:14:00,55.2,38.8,30.12,NE,54,5.5,8.1,54,0.00,CLR,,0.00,WeatherDisplay:10.37,2013-04-01 19:14:00,
2013-04-01 14:19:00,55.0,39.1,30.12,NW,316,7.2,11.5,55,0.00,CLR,,0.00,WeatherDisplay:10.37,2013-04-01 19:19:00,
2013-04-01 14:24:00,54.8,39.4,30.12,NW,324,5.2,9.2,56,0.00,CLR,,0.00,WeatherDisplay:10.37,2013-04-01 19:24:00,
2013-04-01 14:29:00,54.7,39.8,30.12,ENE,60,4.5,8.1,57,0.00,CLR,,0.00,WeatherDisplay:10.37,2013-04-01 19:29:00,
2013-04-01 14:34:00,54.7,39.3,30.12,NE,54,4.4,6.9,56,0.00,CLR,,0.00,WeatherDisplay:10.37,2013-04-01 19:34:00,
2013-04-01 14:39:00,54.8,39.4,30.12,NW,318,4.1,5.0,56,0.00,CLR,,0.00,WeatherDisplay:10.37,2013-04-01 19:39:00,
2013-04-01 14:44:00,54.9,39.5,30.12,North,349,6.7,10.4,56,0.00,CLR,,0.00,WeatherDisplay:10.37,2013-04-01 19:44:00,
2013-04-01 14:49:00,54.8,39.4,30.12,WNW,298,2.7,4.6,56,0.00,CLR,,0.00,WeatherDisplay:10.37,2013-04-01 19:49:00,
2013-04-01 14:54:00,54.8,39.4,30.12,WNW,303,4.7,8.1,56,0.00,CLR,,0.00,WeatherDisplay:10.37,2013-04-01 19:54:00,
2013-04-01 14:59:00,55.1,39.7,30.12,NW,324,3.1,4.6,56,0.00,CLR,,0.00,WeatherDisplay:10.37,2013-04-01 19:59:00,
2013-04-01 15:04:00,55.3,39.4,30.11,NNW,333,6.4,10.4,55,0.00,CLR,,0.00,WeatherDisplay:10.37,2013-04-01 20:04:00,
2013-04-01 15:09:00,55.5,39.6,30.12,NW,312,7.0,10.4,55,0.00,CLR,,0.00,WeatherDisplay:10.37,2013-04-01 20:09:00,
2013-04-01 15:14:00,55.9,40.0,30.12,NE,49,4.0,5.8,55,0.00,CLR,,0.00,WeatherDisplay:10.37,2013-04-01 20:14:00,
2013-04-01 15:19:00,55.9,39.5,30.12,NNW,345,7.4,11.5,54,0.00,CLR,,0.00,WeatherDisplay:10.37,2013-04-01 20:19:00,
2013-04-01 15:24:00,55.7,39.3,30.12,NNE,23,4.8,8.0,54,0.00,CLR,,0.00,WeatherDisplay:10.37,2013-04-01 20:24:00,
2013-04-01 15:29:00,55.7,39.8,30.12,NW,326,6.4,8.1,55,0.00,CLR,,0.00,WeatherDisplay:10.37,2013-04-01 20:29:00,
2013-04-01 15:34:00,55.3,38.9,30.12,NNW,333,6.3,9.2,54,0.00,CLR,,0.00,WeatherDisplay:10.37,2013-04-01 20:34:00,
2013-04-01 15:39:00,54.8,38.9,30.12,NW,322,4.9,6.9,55,0.00,CLR,,0.00,WeatherDisplay:10.37,2013-04-01 20:39:00,
2013-04-01 15:44:00,54.5,38.7,30.13,North,350,3.7,9.0,55,0.00,CLR,,0.00,WeatherDisplay:10.37,2013-04-01 20:44:00,
2013-04-01 15:49:00,54.7,39.3,30.12,NW,316,3.6,8.1,56,0.00,CLR,,0.00,WeatherDisplay:10.37,2013-04-01 20:49:00,
2013-04-01 15:54:00,54.8,38.5,30.13,NE,47,4.9,6.0,54,0.00,CLR,,0.00,WeatherDisplay:10.37,2013-04-01 20:54:00,
2013-04-01 15:59:00,54.7,38.8,30.13,NE,41,5.1,6.9,55,0.00,CLR,,0.00,WeatherDisplay:10.37,2013-04-01 20:59:00,
2013-04-01 16:04:00,54.6,38.7,30.13,NW,307,3.3,6.9,55,0.00,CLR,,0.00,WeatherDisplay:10.37,2013-04-01 21:04:00,
2013-04-01 16:09:00,54.6,39.7,30.13,WNW,297,3.3,4.6,57,0.00,CLR,,0.00,WeatherDisplay:10.37,2013-04-01 21:09:00,
2013-04-01 16:14:00,54.5,38.2,30.13,NNW,329,4.3,8.1,54,0.00,CLR,,0.00,WeatherDisplay:10.37,2013-04-01 21:14:00,
2013-04-01 16:19:00,54.1,38.3,30.13,WNW,301,4.4,6.0,55,0.00,CLR,,0.00,WeatherDisplay:10.37,2013-04-01 21:19:00,
2013-04-01 16:24:00,53.9,38.1,30.13,NNW,343,5.9,9.2,55,0.00,CLR,,0.00,WeatherDisplay:10.37,2013-04-01 21:24:00,
2013-04-01 16:29:00,53.6,38.7,30.13,NNW,333,1.7,3.0,57,0.00,CLR,,0.00,WeatherDisplay:10.37,2013-04-01 21:29:00,
2013-04-01 16:34:00,53.6,38.7,30.13,NW,307,4.9,9.2,57,0.00,CLR,,0.00,WeatherDisplay:10.37,2013-04-01 21:34:00,
2013-04-01 16:39:00,53.2,38.4,30.13,NW,309,4.8,5.8,57,0.00,CLR,,0.00,WeatherDisplay:10.37,2013-04-01 21:39:00,
2013-04-01 16:44:00,52.7,37.9,30.13,WNW,302,4.2,5.8,57,0.00,CLR,,0.00,WeatherDisplay:10.37,2013-04-01 21:44:00,
2013-04-01 16:49:00,52.5,37.7,30.12,NNW,333,1.8,8.1,57,0.00,CLR,,0.00,WeatherDisplay:10.37,2013-04-01 21:49:00,
2013-04-01 16:54:00,52.4,38.5,30.12,NE,44,4.6,5.8,59,0.00,CLR,,0.00,WeatherDisplay:10.37,2013-04-01 21:54:00,
2013-04-01 16:59:00,52.1,38.6,30.12,NW,326,1.5,5.8,60,0.00,CLR,,0.00,WeatherDisplay:10.37,2013-04-01 21:59:00,
2013-04-01 17:04:00,51.8,38.3,30.12,NNW,334,2.3,8.1,60,0.00,CLR,,0.00,WeatherDisplay:10.37,2013-04-01 22:04:00,
2013-04-01 17:09:00,51.5,37.6,30.12,NE,36,4.0,8.1,59,0.00,CLR,,0.00,WeatherDisplay:10.37,2013-04-01 22:09:00,
2013-04-01 17:14:00,51.4,37.1,30.13,NW,325,6.6,6.6,58,0.00,CLR,,0.00,WeatherDisplay:10.37,2013-04-01 22:14:00,
2013-04-01 17:19:00,51.3,37.0,30.13,NNW,343,5.8,9.2,58,0.00,CLR,,0.00,WeatherDisplay:10.37,2013-04-01 22:19:00,
2013-04-01 17:24:00,51.1,37.3,30.13,NNW,328,3.2,11.5,59,0.00,CLR,,0.00,WeatherDisplay:10.37,2013-04-01 22:24:00,
2013-04-01 17:29:00,51.0,37.2,30.13,NNW,333,7.1,10.4,59,0.00,CLR,,0.00,WeatherDisplay:10.37,2013-04-01 22:29:00,
2013-04-01 17:34:00,50.8,37.4,30.13,NW,309,6.1,8.1,60,0.00,CLR,,0.00,WeatherDisplay:10.37,2013-04-01 22:34:00,
2013-04-01 17:39:00,50.5,37.1,30.13,NW,307,2.9,4.6,60,0.00,CLR,,0.00,WeatherDisplay:10.37,2013-04-01 22:39:00,
2013-04-01 17:44:00,50.4,37.4,30.13,NNW,338,2.2,5.8,61,0.00,CLR,,0.00,WeatherDisplay:10.37,2013-04-01 22:44:00,
2013-04-01 17:49:00,50.2,36.4,30.13,NNW,345,7.4,10.4,59,0.00,CLR,,0.00,WeatherDisplay:10.37,2013-04-01 22:49:00,
2013-04-01 17:54:00,50.1,36.7,30.12,NNW,334,2.4,3.5,60,0.00,CLR,,0.00,WeatherDisplay:10.37,2013-04-01 22:54:00,
2013-04-01 17:59:00,50.0,36.2,30.12,WNW,300,3.3,8.1,59,0.00,CLR,,0.00,WeatherDisplay:10.37,2013-04-01 22:59:00,
2013-04-01 18:04:00,49.9,35.7,30.12,ENE,61,2.6,11.5,58,0.00,CLR,,0.00,WeatherDisplay:10.37,2013-04-01 23:04:00,
2013-04-01 18:09:00,49.7,35.9,30.13,NW,325,2.7,6.9,59,0.00,CLR,,0.00,WeatherDisplay:10.37,2013-04-01 23:09:00,
2013-04-01 18:14:00,49.6,35.8,30.12,NNE,12,3.2,3.5,59,0.00,CLR,,0.00,WeatherDisplay:10.37,2013-04-01 23:14:00,
2013-04-01 18:19:00,49.4,35.2,30.12,NNE,29,3.0,6.9,58,0.00,CLR,,0.00,WeatherDisplay:10.37,2013-04-01 23:19:00,
2013-04-01 18:25:00,49.2,35.0,30.12,NNW,345,4.4,6.9,58,0.00,CLR,,0.00,WeatherDisplay:10.37,2013-04-01 23:25:00,
2013-04-01 18:30:00,49.0,35.3,30.11,ENE,60,4.4,5.8,59,0.00,CLR,,0.00,WeatherDisplay:10.37,2013-04-01 23:30:00,
2013-04-01 18:35:00,48.9,35.6,30.10,NNE,22,3.6,3.6,60,0.00,CLR,,0.00,WeatherDisplay:10.37,2013-04-01 23:35:00,
2013-04-01 18:40:00,48.8,35.5,30.10,NNE,20,2.0,4.6,60,0.00,CLR,,0.00,WeatherDisplay:10.37,2013-04-01 23:40:00,
2013-04-01 18:44:00,48.7,35.4,30.11,NNW,341,4.1,5.0,60,0.00,CLR,,0.00,WeatherDisplay:10.37,2013-04-01 23:44:00,
2013-04-01 18:50:00,48.4,35.1,30.11,NE,49,5.5,5.8,60,0.00,CLR,,0.00,WeatherDisplay:10.37,2013-04-01 23:50:00,
2013-04-01 18:55:00,48.1,35.3,30.11,NNW,339,6.8,11.5,61,0.00,CLR,,0.00,WeatherDisplay:10.37,2013-04-01 23:55:00,
2013-04-01 19:00:00,47.8,35.0,30.11,NE,35,6.3,11.5,61,0.00,CLR,,0.00,WeatherDisplay:10.37,2013-04-02 00:00:00,
2013-04-01 19:05:00,47.5,34.3,30.12,North,3,4.2,8.1,60,0.00,CLR,,0.00,WeatherDisplay:10.37,2013-04-02 00:05:00,
2013-04-01 19:10:00,47.1,33.9,30.12,NNE,33,5.6,10.4,60,0.00,CLR,,0.00,WeatherDisplay:10.37,2013-04-02 00:10:00,
2013-04-01 19:15:00,46.8,32.8,30.12,NW,320,3.8,11.5,58,0.00,CLR,,0.00,WeatherDisplay:10.37,2013-04-02 00:15:00,
2013-04-01 19:20:00,46.6,32.6,30.12,North,354,5.3,11.5,58,0.00,CLR,,0.00,WeatherDisplay:10.37,2013-04-02 00:20:00,
2013-04-01 19:25:00,46.4,32.4,30.11,East,80,6.3,9.2,58,0.00,CLR,,0.00,WeatherDisplay:10.37,2013-04-02 00:25:00,
2013-04-01 19:30:00,46.2,32.7,30.10,ENE,63,5.9,10.4,59,0.00,CLR,,0.00,WeatherDisplay:10.37,2013-04-02 00:30:00,
2013-04-01 19:35:00,45.9,33.6,30.09,ENE,64,4.8,9.2,62,0.00,CLR,,0.00,WeatherDisplay:10.37,2013-04-02 00:35:00,
2013-04-01 19:40:00,44.9,35.0,30.10,NE,34,2.6,6.0,68,0.01,RA,,0.01,WeatherDisplay:10.37,2013-04-02 00:40:00,
2013-04-01 19:45:00,43.9,36.1,30.12,NW,312,1.0,2.3,74,0.01,RA,,0.01,WeatherDisplay:10.37,2013-04-02 00:45:00,
2013-04-01 19:50:00,43.3,35.6,30.13,NNE,16,0.6,2.3,74,0.01,CLR,,0.01,WeatherDisplay:10.37,2013-04-02 00:50:00,
2013-04-01 19:55:00,43.1,34.7,30.12,NW,308,1.9,3.5,72,0.01,CLR,,0.01,WeatherDisplay:10.37,2013-04-02 00:55:00,
2013-04-01 20:00:00,43.0,34.9,30.12,NNW,340,0.3,1.1,73,0.01,,,0.01,WeatherDisplay:10.37,2013-04-02 01:00:00,
2013-04-01 20:05:00,42.9,35.2,30.11,WSW,253,0.1,1.1,74,0.01,,,0.01,WeatherDisplay:10.37,2013-04-02 01:05:00,
2013-04-01 20:10:00,42.8,35.1,30.12,NNE,18,0.8,2.0,74,0.01,,,0.01,WeatherDisplay:10.37,2013-04-02 01:10:00,
2013-04-01 20:15:00,42.6,34.5,30.11,West,279,2.3,3.5,73,0.01,,,0.01,WeatherDisplay:10.37,2013-04-02 01:15:00,
2013-04-01 20:20:00,42.6,34.9,30.12,NW,319,1.5,3.0,74,0.01,,,0.01,WeatherDisplay:10.37,2013-04-02 01:20:00,
2013-04-01 20:25:00,42.7,34.6,30.13,NNW,335,1.1,3.5,73,0.01,,,0.01,WeatherDisplay:10.37,2013-04-02 01:25:00,
2013-04-01 20:30:00,42.7,33.9,30.11,NE,35,2.1,3.5,71,0.01,,,0.01,WeatherDisplay:10.37,2013-04-02 01:30:00,
2013-04-01 20:35:00,42.9,34.8,30.13,WNW,286,0.5,2.3,73,0.01,,,0.01,WeatherDisplay:10.37,2013-04-02 01:35:00,
2013-04-01 20:40:00,42.8,33.7,30.13,WNW,298,1.5,2.3,70,0.00,,,0.01,WeatherDisplay:10.37,2013-04-02 01:40:00,
2013-04-01 20:45:00,42.9,33.4,30.12,ENE,70,1.9,3.5,69,0.00,,,0.01,WeatherDisplay:10.37,2013-04-02 01:45:00,
2013-04-01 20:50:00,43.0,33.2,30.13,NW,325,1.3,2.3,68,0.00,,,0.01,WeatherDisplay:10.37,2013-04-02 01:50:00,
2013-04-01 20:55:00,42.9,33.4,30.13,NNW,328,0.7,2.3,69,0.00,,,0.01,WeatherDisplay:10.37,2013-04-02 01:55:00,
2013-04-01 21:00:00,42.9,33.4,30.13,NNE,33,0.3,2.0,69,0.00,,,0.01,WeatherDisplay:10.37,2013-04-02 02:00:00,
2013-04-01 21:05:00,42.9,34.8,30.14,West,273,1.0,2.3,73,0.00,,,0.01,WeatherDisplay:10.37,2013-04-02 02:05:00,
2013-04-01 21:10:00,42.7,33.2,30.14,NW,312,1.0,1.1,69,0.00,,,0.01,WeatherDisplay:10.37,2013-04-02 02:10:00,
2013-04-01 21:15:00,42.8,33.3,30.16,WNW,300,4.1,4.6,69,0.00,,,0.01,WeatherDisplay:10.37,2013-04-02 02:15:00,
2013-04-01 21:20:00,43.0,33.2,30.16,NNW,327,3.4,4.0,68,0.00,,,0.01,WeatherDisplay:10.37,2013-04-02 02:20:00,
2013-04-01 21:25:00,43.1,33.6,30.15,NNW,333,2.6,4.0,69,0.00,,,0.01,WeatherDisplay:10.37,2013-04-02 02:25:00,
2013-04-01 21:30:00,43.1,32.9,30.15,NNW,332,4.1,5.8,67,0.00,,,0.01,WeatherDisplay:10.37,2013-04-02 02:30:00,
2013-04-01 21:35:00,43.3,33.4,30.15,West,259,1.7,3.0,68,0.00,,,0.01,WeatherDisplay:10.37,2013-04-02 02:35:00,
2013-04-01 21:40:00,43.3,32.7,30.15,NNW,339,3.4,4.6,66,0.00,,,0.01,WeatherDisplay:10.37,2013-04-02 02:40:00,
2013-04-01 21:45:00,43.4,32.4,30.15,NNW,338,4.3,7.0,65,0.00,,,0.01,WeatherDisplay:10.37,2013-04-02 02:45:00,
2013-04-01 21:50:00,43.5,32.1,30.16,NW,321,3.6,6.9,64,0.00,,,0.01,WeatherDisplay:10.37,2013-04-02 02:50:00,
2013-04-01 21:55:00,43.5,31.3,30.15,NNW,332,5.1,5.1,62,0.00,,,0.01,WeatherDisplay:10.37,2013-04-02 02:55:00,
2013-04-01 22:00:00,43.5,30.9,30.16,NNE,12,6.2,11.5,61,0.00,,,0.01,WeatherDisplay:10.37,2013-04-02 03:00:00,
2013-04-01 22:05:00,43.5,30.9,30.16,NW,325,4.9,11.5,61,0.00,,,0.01,WeatherDisplay:10.37,2013-04-02 03:05:00,
2013-04-01 22:10:00,43.4,30.8,30.17,NW,321,3.2,3.5,61,0.00,CLR,,0.01,WeatherDisplay:10.37,2013-04-02 03:10:00,
2013-04-01 22:15:00,43.3,30.7,30.17,NNW,340,2.9,4.6,61,0.00,CLR,,0.01,WeatherDisplay:10.37,2013-04-02 03:15:00,
2013-04-01 22:20:00,43.2,29.8,30.17,NNW,345,5.4,8.1,59,0.00,CLR,,0.01,WeatherDisplay:10.37,2013-04-02 03:20:00,
2013-04-01 22:25:00,43.1,30.1,30.17,WNW,287,2.6,4.6,60,0.00,CLR,,0.01,WeatherDisplay:10.37,2013-04-02 03:25:00,
2013-04-01 22:31:00,43.0,30.1,30.17,NNW,331,3.4,6.9,60,0.00,CLR,,0.01,WeatherDisplay:10.37,2013-04-02 03:31:00,
2013-04-01 22:36:00,42.9,30.0,30.17,North,353,4.7,8.1,60,0.00,CLR,,0.01,WeatherDisplay:10.37,2013-04-02 03:36:00,
2013-04-01 22:41:00,43.0,29.2,30.17,North,1,4.6,9.2,58,0.00,CLR,,0.01,WeatherDisplay:10.37,2013-04-02 03:41:00,
2013-04-01 22:46:00,43.0,29.2,30.17,NNE,13,4.6,8.1,58,0.00,CLR,,0.01,WeatherDisplay:10.37,2013-04-02 03:46:00,
2013-04-01 22:51:00,42.9,29.5,30.18,NW,309,2.8,4.6,59,0.00,CLR,,0.01,WeatherDisplay:10.37,2013-04-02 03:51:00,
2013-04-01 22:56:00,42.8,29.0,30.19,NW,309,3.6,5.0,58,0.00,CLR,,0.01,WeatherDisplay:10.37,2013-04-02 03:56:00,
2013-04-01 23:00:00,42.8,29.0,30.18,NE,37,4.2,8.0,58,0.00,CLR,,0.01,WeatherDisplay:10.37,2013-04-02 04:00:00,
2013-04-01 23:05:00,42.9,28.3,30.18,NE,44,5.5,10.4,56,0.00,CLR,,0.01,WeatherDisplay:10.37,2013-04-02 04:05:00,
2013-04-01 23:10:00,42.9,28.3,30.18,NE,34,7.2,9.2,56,0.00,CLR,,0.01,WeatherDisplay:10.37,2013-04-02 04:10:00,
2013-04-01 23:15:00,42.8,28.2,30.18,NNW,338,6.7,6.7,56,0.00,CLR,,0.01,WeatherDisplay:10.37,2013-04-02 04:15:00,
2013-04-01 23:20:00,42.8,28.2,30.19,NNW,328,4.9,9.2,56,0.00,CLR,,0.01,WeatherDisplay:10.37,2013-04-02 04:20:00,
2013-04-01 23:25:00,42.7,28.1,30.18,NNE,32,3.7,8.1,56,0.00,CLR,,0.01,WeatherDisplay:10.37,2013-04-02 04:25:00,
2013-04-01 23:30:00,42.7,28.5,30.17,NNE,33,6.0,8.1,57,0.00,CLR,,0.01,WeatherDisplay:10.37,2013-04-02 04:30:00,
2013-04-01 23:35:00,42.5,28.3,30.17,NE,34,3.7,8.1,57,0.00,CLR,,0.01,WeatherDisplay:10.37,2013-04-02 04:35:00,
2013-04-01 23:40:00,42.4,28.2,30.16,ENE,62,6.6,6.6,57,0.00,CLR,,0.01,WeatherDisplay:10.37,2013-04-02 04:40:00,
2013-04-01 23:46:00,42.3,28.6,30.16,NNE,12,6.5,11.5,58,0.00,CLR,,0.01,WeatherDisplay:10.37,2013-04-02 04:46:00,
2013-04-01 23:51:00,42.3,29.0,30.16,NE,41,5.3,8.1,59,0.00,CLR,,0.01,WeatherDisplay:10.37,2013-04-02 04:51:00,
2013-04-01 23:56:00,42.2,28.9,30.16,ENE,67,1.8,9.2,59,0.00,CLR,,0.01,WeatherDisplay:10.37,2013-04-02 04:56:00,